createdAt,value
2019-05-17T00:02:37.151Z,25.23
2019-05-17T00:06:47.649Z,25.87
2019-05-17T00:10:57.069Z,25.40
2019-05-17T00:15:07.261Z,26.27
2019-05-17T00:19:16.928Z,30.30
2019-05-17T00:23:26.895Z,26.37
2019-05-17T00:27:36.732Z,23.67
2019-05-17T00:31:46.189Z,27.67
2019-05-17T00:35:56.295Z,27.30
2019-05-17T00:40:07.265Z,21.77
2019-05-17T00:44:16.821Z,27.30
2019-05-17T00:48:26.461Z,23.67
2019-05-17T00:52:36.832Z,28.70
2019-05-17T00:56:46.381Z,26.90
2019-05-17T01:00:57.145Z,27.40
2019-05-17T01:05:06.520Z,23.57
2019-05-17T01:09:17.043Z,25.47
2019-05-17T01:13:26.835Z,29.30
2019-05-17T01:17:36.547Z,28.70
2019-05-17T01:21:47.463Z,24.47
2019-05-17T01:25:56.787Z,27.83
2019-05-17T01:30:06.892Z,24.73
2019-05-17T01:34:16.673Z,29.47
2019-05-17T01:38:26.996Z,29.43
2019-05-17T01:42:37.421Z,28.87
2019-05-17T01:46:46.673Z,28.57
2019-05-17T01:50:56.809Z,26.47
2019-05-17T01:55:06.568Z,29.53
2019-05-17T01:59:17.293Z,26.17
2019-05-17T02:03:26.803Z,24.27
2019-05-17T02:07:37.317Z,28.23
2019-05-17T02:11:46.736Z,26.77
2019-05-17T02:15:56.437Z,24.77
2019-05-17T02:20:06.425Z,27.07
2019-05-17T02:24:16.915Z,24.20
2019-05-17T02:28:25.925Z,26.70
2019-05-17T02:32:34.966Z,29.90
2019-05-17T02:36:43.751Z,31.90
2019-05-17T02:40:53.514Z,29.63
2019-05-17T02:45:03.535Z,26.60
2019-05-17T02:49:13.796Z,22.37
2019-05-17T02:53:23.207Z,18.37
2019-05-17T02:57:34.688Z,16.83
2019-05-17T03:01:44.337Z,13.37
2019-05-17T03:05:53.787Z,18.00
2019-05-17T03:10:18.208Z,11.57
2019-05-17T03:14:13.799Z,9.73
2019-05-17T03:18:23.186Z,10.40
2019-05-17T03:22:33.227Z,9.53
2019-05-17T03:26:43.152Z,8.67
2019-05-17T03:30:56.353Z,8.43
2019-05-17T03:35:07.288Z,8.67
2019-05-17T03:39:16.386Z,8.73
2019-05-17T03:43:25.207Z,12.90
2019-05-17T03:47:34.551Z,11.43
2019-05-17T03:51:43.475Z,9.70
2019-05-17T03:55:53.976Z,7.30
2019-05-17T04:00:04.130Z,7.33
2019-05-17T04:04:13.624Z,7.40
2019-05-17T04:08:23.154Z,8.30
2019-05-17T04:12:32.808Z,7.77
2019-05-17T04:16:42.870Z,8.17
2019-05-17T04:20:52.774Z,6.97
2019-05-17T04:25:03.044Z,7.97
2019-05-17T04:29:13.553Z,7.67
2019-05-17T04:33:23.433Z,7.90
2019-05-17T04:37:33.576Z,8.93
2019-05-17T04:41:49.388Z,7.10
2019-05-17T04:45:53.990Z,8.27
2019-05-17T04:50:03.936Z,8.60
2019-05-17T04:54:13.904Z,9.07
2019-05-17T04:58:23.523Z,9.20
2019-05-17T05:02:33.237Z,6.90
2019-05-17T05:06:43.543Z,6.90
2019-05-17T05:10:53.568Z,8.10
2019-05-17T05:15:03.509Z,6.83
2019-05-17T05:19:13.126Z,7.60
2019-05-17T05:23:23.872Z,7.83
2019-05-17T05:27:32.634Z,7.00
2019-05-17T05:31:42.755Z,7.43
2019-05-17T05:35:51.859Z,10.90
2019-05-17T05:40:02.024Z,16.93
2019-05-17T05:44:12.235Z,10.57
2019-05-17T05:48:21.757Z,10.00
2019-05-17T05:52:32.418Z,8.93
2019-05-17T05:56:42.240Z,9.20
2019-05-17T06:00:53.183Z,10.20
2019-05-17T06:05:02.242Z,7.43
2019-05-17T06:09:12.031Z,7.47
2019-05-17T06:13:21.801Z,7.00
2019-05-17T06:17:31.755Z,6.00
2019-05-17T06:21:42.662Z,5.70
2019-05-17T06:25:52.178Z,6.40
2019-05-17T06:30:01.605Z,7.77
2019-05-17T06:34:11.599Z,5.90
2019-05-17T06:38:22.456Z,5.77
2019-05-17T06:42:40.495Z,5.20
2019-05-17T06:46:41.979Z,5.90
2019-05-17T06:50:51.980Z,6.20
2019-05-17T06:55:05.262Z,4.63
2019-05-17T06:59:11.536Z,5.10
2019-05-17T07:03:20.315Z,4.70
2019-05-17T07:07:30.570Z,4.27
2019-05-17T07:11:39.927Z,4.07
2019-05-17T07:15:50.930Z,4.13
2019-05-17T07:19:59.847Z,4.07
2019-05-17T07:24:10.023Z,4.50
2019-05-17T07:28:19.930Z,4.97
2019-05-17T07:32:29.772Z,4.90
2019-05-17T07:36:39.705Z,3.87
2019-05-17T07:40:50.190Z,3.70
2019-05-17T07:45:00.482Z,3.70
2019-05-17T07:49:10.842Z,3.50
2019-05-17T07:53:20.387Z,3.70
2019-05-17T07:57:29.927Z,4.37
2019-05-17T08:01:41.086Z,3.77
2019-05-17T08:05:50.551Z,4.23
2019-05-17T08:10:00.194Z,4.10
2019-05-17T08:14:10.511Z,3.70
2019-05-17T08:18:20.379Z,6.00
2019-05-17T08:22:29.494Z,4.40
2019-05-17T08:26:40.250Z,4.53
2019-05-17T08:30:50.152Z,4.10
2019-05-17T08:35:00.297Z,4.90
2019-05-17T08:39:10.273Z,4.30
2019-05-17T08:43:21.354Z,4.50
2019-05-17T08:47:30.140Z,5.97
2019-05-17T08:51:39.709Z,5.37
2019-05-17T08:55:50.040Z,4.90
2019-05-17T09:00:00.731Z,5.70
2019-05-17T09:04:09.755Z,5.20
2019-05-17T09:08:20.509Z,6.60
2019-05-17T09:12:30.031Z,6.33
2019-05-17T09:16:40.138Z,6.50
2019-05-17T09:20:49.608Z,6.17
2019-05-17T09:24:59.587Z,6.10
2019-05-17T09:29:10.606Z,8.67
2019-05-17T09:33:19.279Z,8.00
2019-05-17T09:37:30.303Z,7.47
2019-05-17T09:41:39.762Z,9.57
2019-05-17T09:45:50.698Z,12.23
2019-05-17T09:50:00.434Z,10.90
2019-05-17T09:54:10.301Z,12.00
2019-05-17T09:58:21.646Z,9.90
2019-05-17T10:02:29.841Z,11.00
2019-05-17T10:06:40.086Z,12.00
2019-05-17T10:11:04.251Z,11.87
2019-05-17T10:15:00.435Z,12.53
2019-05-17T10:19:09.687Z,12.50
2019-05-17T10:23:19.711Z,11.73
2019-05-17T10:27:30.253Z,13.33
2019-05-17T10:31:39.824Z,14.97
2019-05-17T10:35:49.678Z,14.70
2019-05-17T10:39:58.746Z,14.00
2019-05-17T10:44:09.454Z,14.77
2019-05-17T10:48:21.021Z,12.97
2019-05-17T10:52:29.910Z,13.37
2019-05-17T10:56:39.275Z,13.80
2019-05-17T11:00:50.093Z,14.87
2019-05-17T11:05:00.743Z,13.30
2019-05-17T11:09:10.328Z,13.33
2019-05-17T11:13:19.334Z,13.67
2019-05-17T11:17:28.191Z,12.47
2019-05-17T11:21:37.075Z,13.57
2019-05-17T11:25:46.835Z,14.37
2019-05-17T11:29:55.863Z,13.60
2019-05-17T11:34:04.762Z,14.03
2019-05-17T11:38:13.588Z,16.13
2019-05-17T11:42:22.394Z,17.90
2019-05-17T11:46:36.362Z,16.13
2019-05-17T11:50:41.811Z,14.03
2019-05-17T11:54:50.615Z,13.43
2019-05-17T11:58:59.760Z,13.83
2019-05-17T12:03:08.543Z,14.20
2019-05-17T12:07:17.717Z,12.93
2019-05-17T12:11:26.509Z,13.40
2019-05-17T12:15:44.484Z,13.13
2019-05-17T12:19:45.943Z,14.30
2019-05-17T12:23:54.751Z,12.37
2019-05-17T12:28:03.646Z,15.20
2019-05-17T12:32:16.920Z,13.83
2019-05-17T12:36:22.947Z,15.27
2019-05-17T12:40:31.812Z,13.47
2019-05-17T12:44:40.619Z,13.10
2019-05-17T12:48:49.423Z,13.27
2019-05-17T12:52:58.304Z,14.27
2019-05-17T12:57:07.150Z,14.07
2019-05-17T13:01:16.038Z,15.10
2019-05-17T13:05:25.123Z,13.23
2019-05-17T13:09:34.035Z,13.97
2019-05-17T13:13:42.831Z,12.10
2019-05-17T13:17:51.849Z,12.90
2019-05-17T13:22:00.751Z,12.93
2019-05-17T13:26:09.554Z,12.10
2019-05-17T13:30:18.789Z,10.73
2019-05-17T13:34:27.650Z,10.27
2019-05-17T13:38:39.602Z,12.23
2019-05-17T13:42:48.371Z,11.50
2019-05-17T13:46:57.130Z,12.07
2019-05-17T13:51:06.459Z,11.23
2019-05-17T13:55:15.505Z,13.40
2019-05-17T13:59:26.547Z,11.00
2019-05-17T14:03:35.621Z,10.83
2019-05-17T14:07:44.449Z,11.47
2019-05-17T14:11:53.591Z,9.97
2019-05-17T14:16:02.658Z,10.30
2019-05-17T14:20:11.689Z,10.60
2019-05-17T14:24:20.548Z,10.20
2019-05-17T14:28:29.325Z,12.03
2019-05-17T14:32:38.898Z,12.13
2019-05-17T14:36:48.047Z,12.20
2019-05-17T14:41:07.133Z,15.93
2019-05-17T14:45:07.949Z,10.47
2019-05-17T14:49:16.743Z,11.07
2019-05-17T14:53:25.614Z,13.60
2019-05-17T14:57:34.397Z,11.10
2019-05-17T15:01:43.354Z,11.63
2019-05-17T15:05:52.531Z,11.37
2019-05-17T15:10:01.410Z,11.80
2019-05-17T15:14:10.326Z,11.43
2019-05-17T15:18:19.122Z,12.17
2019-05-17T15:22:28.063Z,10.63
2019-05-17T15:26:36.863Z,13.97
2019-05-17T15:30:45.801Z,11.93
2019-05-17T15:34:54.574Z,10.50
2019-05-17T15:39:04.941Z,11.60
2019-05-17T15:43:13.815Z,12.80
2019-05-17T15:47:22.607Z,11.50
2019-05-17T15:51:31.491Z,13.27
2019-05-17T15:55:40.283Z,11.07
2019-05-17T15:59:49.129Z,12.27
2019-05-17T16:03:57.954Z,11.00
2019-05-17T16:08:06.842Z,11.93
2019-05-17T16:12:15.631Z,10.30
2019-05-17T16:16:24.426Z,10.90
2019-05-17T16:20:33.285Z,9.97
2019-05-17T16:24:42.357Z,10.50
2019-05-17T16:28:51.183Z,10.37
2019-05-17T16:32:59.967Z,10.87
2019-05-17T16:37:08.817Z,9.67
2019-05-17T16:41:17.661Z,9.23
2019-05-17T16:49:34.722Z,10.57
2019-05-17T16:53:43.519Z,12.20
2019-05-17T16:57:52.383Z,11.13
2019-05-17T17:02:01.222Z,10.50
2019-05-17T17:06:10.580Z,11.77
2019-05-17T17:10:19.535Z,11.93
2019-05-17T17:14:28.510Z,12.30
2019-05-17T17:18:37.287Z,11.20
2019-05-17T17:22:46.137Z,11.13
2019-05-17T17:26:55.036Z,10.00
2019-05-17T17:31:04.225Z,10.47
2019-05-17T17:35:14.264Z,11.83
2019-05-17T17:39:23.063Z,11.50
2019-05-17T17:43:31.846Z,11.50
2019-05-17T17:47:40.770Z,12.30
2019-05-17T17:51:49.725Z,10.70
2019-05-17T17:55:58.531Z,10.50
2019-05-17T18:00:07.674Z,12.20
2019-05-17T18:04:16.460Z,10.63
2019-05-17T18:08:25.578Z,11.37
2019-05-17T18:12:34.454Z,10.30
2019-05-17T18:16:43.245Z,14.00
2019-05-17T18:20:52.402Z,10.73
2019-05-17T18:25:01.427Z,11.63
2019-05-17T18:29:10.306Z,11.93
2019-05-17T18:33:19.458Z,13.00
2019-05-17T18:37:28.405Z,12.80
2019-05-17T18:41:37.529Z,15.95
2019-05-17T18:45:46.406Z,13.90
2019-05-17T18:49:55.303Z,11.17
2019-05-17T18:54:05.696Z,13.50
2019-05-17T18:58:14.647Z,19.60
2019-05-17T19:02:23.586Z,15.73
2019-05-17T19:06:32.629Z,13.13
2019-05-17T19:10:41.499Z,16.70
2019-05-17T19:14:50.457Z,19.73
2019-05-17T19:18:59.361Z,12.33
2019-05-17T19:23:08.228Z,12.67
2019-05-17T19:27:17.101Z,12.13
2019-05-17T19:31:26.038Z,10.57
2019-05-17T19:35:34.903Z,14.57
2019-05-17T19:39:43.771Z,13.30
2019-05-17T19:43:52.799Z,12.30
2019-05-17T19:48:01.598Z,12.63
2019-05-17T19:52:10.926Z,13.93
2019-05-17T19:56:20.150Z,14.00
2019-05-17T20:00:29.201Z,19.17
2019-05-17T20:04:38.253Z,11.73
2019-05-17T20:08:47.188Z,12.43
2019-05-17T20:12:56.398Z,11.00
2019-05-17T20:17:05.303Z,13.13
2019-05-17T20:21:14.120Z,11.70
2019-05-17T20:25:23.099Z,11.87
2019-05-17T20:29:32.084Z,11.27
2019-05-17T20:33:41.018Z,24.90
2019-05-17T20:37:50.164Z,13.43
2019-05-17T20:41:58.971Z,16.13
2019-05-17T20:46:07.811Z,17.50
2019-05-17T20:50:16.749Z,21.00
2019-05-17T20:54:26.232Z,25.30
2019-05-17T20:58:35.123Z,16.83
2019-05-17T21:02:43.901Z,24.80
2019-05-17T21:06:52.688Z,14.90
2019-05-17T21:11:01.546Z,17.90
2019-05-17T21:15:10.736Z,14.50
2019-05-17T21:19:19.545Z,14.27
2019-05-17T21:23:28.570Z,14.03
2019-05-17T21:27:37.430Z,16.40
2019-05-17T21:31:46.641Z,15.90
2019-05-17T21:35:55.452Z,15.03
2019-05-17T21:40:04.899Z,13.97
2019-05-17T21:44:13.709Z,15.20
2019-05-17T21:48:22.474Z,18.63
2019-05-17T21:52:31.503Z,18.50
2019-05-17T21:56:40.287Z,17.20
2019-05-17T22:01:12.448Z,13.90
2019-05-17T22:05:21.270Z,23.00
2019-05-17T22:09:30.492Z,21.83
2019-05-17T22:13:39.419Z,26.67
2019-05-17T22:17:48.228Z,19.13
2019-05-17T22:21:57.027Z,17.20
2019-05-17T22:26:06.455Z,16.43
2019-05-17T22:30:15.391Z,27.33
2019-05-17T22:34:24.436Z,18.30
2019-05-17T22:38:33.371Z,25.17
2019-05-17T22:42:42.181Z,33.23
2019-05-17T22:46:51.016Z,13.97
2019-05-17T22:50:59.878Z,22.77
2019-05-17T22:55:09.201Z,19.53
2019-05-17T22:59:17.998Z,27.37
2019-05-17T23:03:26.889Z,27.03
2019-05-17T23:07:35.674Z,19.60
2019-05-17T23:11:44.465Z,24.87
2019-05-17T23:16:04.553Z,20.13
2019-05-17T23:20:14.022Z,17.13
2019-05-17T23:24:22.799Z,21.17
2019-05-17T23:28:31.837Z,21.90
2019-05-17T23:32:40.613Z,40.70
2019-05-17T23:36:49.798Z,30.73
2019-05-17T23:40:58.662Z,44.97
2019-05-17T23:45:07.552Z,94.23
2019-05-17T23:49:16.335Z,73.70
2019-05-17T23:53:25.394Z,111.00
2019-05-17T23:57:34.515Z,24.93
